createdAt,value
2023-02-08T00:00:27.288Z,6.97
2023-02-08T00:02:55.355Z,6.93
2023-02-08T00:05:24.872Z,6.53
2023-02-08T00:07:52.832Z,6.47
2023-02-08T00:10:20.831Z,7.07
2023-02-08T00:12:48.781Z,7.00
2023-02-08T00:15:16.738Z,7.60
2023-02-08T00:17:44.675Z,7.33
2023-02-08T00:20:13.199Z,6.93
2023-02-08T00:22:42.834Z,7.10
2023-02-08T00:25:10.907Z,7.10
2023-02-08T00:27:38.845Z,6.93
2023-02-08T00:30:07.259Z,6.73
2023-02-08T00:32:35.366Z,6.70
2023-02-08T00:35:03.316Z,6.17
2023-02-08T00:37:31.317Z,6.97
2023-02-08T00:40:02.816Z,6.37
2023-02-08T00:42:30.740Z,6.27
2023-02-08T00:44:58.791Z,7.87
2023-02-08T00:47:26.882Z,6.80
2023-02-08T00:49:54.833Z,7.77
2023-02-08T00:52:22.821Z,7.97
2023-02-08T00:54:50.755Z,7.43
2023-02-08T00:57:20.169Z,8.67
2023-02-08T00:59:48.141Z,7.63
2023-02-08T01:02:16.196Z,8.30
2023-02-08T01:04:44.314Z,8.67
2023-02-08T01:07:12.267Z,7.20
2023-02-08T01:09:40.372Z,7.90
2023-02-08T01:12:08.368Z,7.43
2023-02-08T01:14:38.325Z,7.37
2023-02-08T01:17:06.385Z,8.40
2023-02-08T01:19:34.366Z,7.10
2023-02-08T01:22:02.323Z,7.60
2023-02-08T01:24:30.340Z,8.30
2023-02-08T01:26:58.887Z,8.27
2023-02-08T01:29:27.102Z,7.90
2023-02-08T01:31:56.517Z,7.60
2023-02-08T01:34:24.435Z,8.57
2023-02-08T01:36:52.450Z,7.77
2023-02-08T01:39:20.382Z,8.67
2023-02-08T01:41:48.301Z,7.90
2023-02-08T01:44:36.977Z,8.47
2023-02-08T01:47:06.380Z,7.97
2023-02-08T01:49:36.168Z,8.73
2023-02-08T01:52:06.470Z,8.23
2023-02-08T01:54:36.757Z,8.33
2023-02-08T01:57:05.235Z,7.93
2023-02-08T01:59:35.104Z,8.17
2023-02-08T02:02:04.298Z,9.37
2023-02-08T02:04:33.743Z,8.30
2023-02-08T02:07:02.171Z,8.73
2023-02-08T02:09:32.525Z,7.90
2023-02-08T02:12:00.969Z,7.83
2023-02-08T02:14:29.308Z,8.37
2023-02-08T02:16:57.233Z,8.27
2023-02-08T02:19:28.379Z,8.40
2023-02-08T02:22:05.533Z,9.80
2023-02-08T02:24:50.299Z,9.47
2023-02-08T02:27:27.520Z,6.83
2023-02-08T02:30:08.545Z,8.13
2023-02-08T02:32:54.404Z,8.90
2023-02-08T02:35:27.075Z,8.77
2023-02-08T02:37:57.531Z,8.20
2023-02-08T02:40:29.802Z,8.13
2023-02-08T02:43:21.985Z,8.53
2023-02-08T02:45:54.416Z,9.00
2023-02-08T02:48:24.578Z,8.70
2023-02-08T02:50:56.898Z,8.63
2023-02-08T02:53:30.020Z,8.90
2023-02-08T02:55:59.736Z,9.17
2023-02-08T02:58:28.999Z,8.97
2023-02-08T03:00:58.079Z,9.47
2023-02-08T03:03:27.211Z,8.67
2023-02-08T03:06:00.093Z,9.03
2023-02-08T03:08:35.286Z,9.87
2023-02-08T03:11:10.152Z,8.73
2023-02-08T03:13:46.017Z,9.17
2023-02-08T03:16:18.133Z,8.77
2023-02-08T03:18:53.476Z,9.93
2023-02-08T03:21:29.050Z,9.03
2023-02-08T03:23:58.866Z,9.50
2023-02-08T03:26:33.011Z,8.53
2023-02-08T03:29:05.128Z,8.90
2023-02-08T03:31:34.543Z,9.13
2023-02-08T03:34:06.202Z,9.43
2023-02-08T03:36:38.112Z,9.00
2023-02-08T03:39:08.156Z,11.07
2023-02-08T03:41:38.342Z,9.00
2023-02-08T03:44:09.730Z,9.30
2023-02-08T03:46:39.679Z,9.33
2023-02-08T03:49:09.107Z,9.17
2023-02-08T03:51:40.812Z,9.37
2023-02-08T03:54:12.677Z,10.50
2023-02-08T03:56:44.784Z,9.40
2023-02-08T03:59:14.153Z,9.17
2023-02-08T04:01:44.478Z,9.40
2023-02-08T04:04:13.485Z,9.47
2023-02-08T04:06:42.905Z,9.90
2023-02-08T04:09:11.662Z,10.00
2023-02-08T04:11:39.644Z,11.37
2023-02-08T04:14:07.823Z,9.37
2023-02-08T04:16:35.732Z,9.63
2023-02-08T04:19:03.712Z,9.73
2023-02-08T04:21:31.637Z,10.40
2023-02-08T04:24:01.196Z,9.70
2023-02-08T04:26:29.138Z,10.47
2023-02-08T04:28:57.062Z,10.47
2023-02-08T04:31:25.060Z,10.60
2023-02-08T04:33:54.780Z,11.20
2023-02-08T04:36:24.148Z,10.70
2023-02-08T04:38:52.209Z,10.43
2023-02-08T04:41:21.587Z,10.40
2023-02-08T04:43:49.914Z,10.27
2023-02-08T04:46:17.882Z,10.07
2023-02-08T04:48:45.831Z,10.10
2023-02-08T04:51:13.846Z,10.50
2023-02-08T04:53:41.838Z,11.43
2023-02-08T04:56:09.809Z,11.27
2023-02-08T04:58:39.211Z,10.23
2023-02-08T05:01:07.925Z,11.00
2023-02-08T05:03:36.174Z,10.20
2023-02-08T05:06:04.331Z,10.97
2023-02-08T05:08:32.274Z,11.87
2023-02-08T05:11:00.183Z,12.50
2023-02-08T05:13:28.483Z,10.20
2023-02-08T05:15:58.034Z,11.57
2023-02-08T05:18:26.114Z,10.17
2023-02-08T05:20:57.389Z,11.13
2023-02-08T05:23:25.425Z,11.73
2023-02-08T05:25:53.611Z,10.53
2023-02-08T05:28:22.188Z,11.43
2023-02-08T05:30:50.427Z,11.93
2023-02-08T05:33:19.929Z,11.07
2023-02-08T05:35:47.875Z,10.70
2023-02-08T05:38:15.887Z,12.40
2023-02-08T05:40:43.893Z,10.53
2023-02-08T05:43:13.351Z,12.27
2023-02-08T05:45:41.332Z,11.13
2023-02-08T05:48:09.364Z,11.83
2023-02-08T05:50:39.072Z,10.50
2023-02-08T05:53:07.676Z,11.47
2023-02-08T05:55:35.900Z,10.57
2023-02-08T05:58:03.854Z,10.87
2023-02-08T06:00:32.170Z,12.13
2023-02-08T06:03:00.143Z,10.90
2023-02-08T06:05:28.237Z,12.40
2023-02-08T06:07:57.609Z,12.47
2023-02-08T06:10:25.542Z,12.10
2023-02-08T06:12:53.550Z,12.30
2023-02-08T06:15:21.504Z,24.33
2023-02-08T06:17:49.469Z,12.47
2023-02-08T06:20:17.441Z,11.67
2023-02-08T06:22:45.430Z,11.43
2023-02-08T06:25:14.769Z,12.13
2023-02-08T06:27:42.742Z,12.37
2023-02-08T06:30:11.336Z,11.07
2023-02-08T06:32:39.474Z,12.07
2023-02-08T06:35:07.784Z,12.43
2023-02-08T06:37:35.764Z,12.73
2023-02-08T06:40:03.734Z,11.97
2023-02-08T06:42:33.107Z,13.63
2023-02-08T06:45:01.103Z,11.33
2023-02-08T06:47:29.289Z,10.83
2023-02-08T06:49:57.286Z,11.47
2023-02-08T06:52:25.320Z,11.70
2023-02-08T06:54:53.247Z,11.30
2023-02-08T06:57:21.186Z,13.10
2023-02-08T06:59:50.592Z,11.83
2023-02-08T07:02:19.903Z,11.00
2023-02-08T07:04:48.088Z,12.13
2023-02-08T07:07:16.647Z,18.63
2023-02-08T07:09:44.848Z,14.27
2023-02-08T07:12:12.790Z,13.97
2023-02-08T07:14:41.815Z,13.63
2023-02-08T07:17:12.012Z,12.03
2023-02-08T07:19:39.979Z,13.77
2023-02-08T07:22:09.329Z,12.10
2023-02-08T07:24:37.597Z,12.33
2023-02-08T07:27:06.341Z,12.00
2023-02-08T07:29:34.679Z,11.53
2023-02-08T07:32:03.330Z,11.77
2023-02-08T07:34:34.915Z,12.37
2023-02-08T07:37:06.103Z,11.30
2023-02-08T07:39:34.203Z,12.50
2023-02-08T07:42:02.274Z,10.47
2023-02-08T07:44:30.362Z,11.70
2023-02-08T07:46:58.316Z,11.67
2023-02-08T07:49:26.445Z,11.73
2023-02-08T07:51:55.836Z,11.87
2023-02-08T07:54:23.923Z,10.73
2023-02-08T07:56:52.246Z,10.73
2023-02-08T07:59:20.239Z,10.70
2023-02-08T08:01:48.820Z,13.00
2023-02-08T08:04:16.939Z,11.40
2023-02-08T08:06:46.733Z,10.90
2023-02-08T08:09:16.176Z,10.53
2023-02-08T08:11:44.131Z,11.00
2023-02-08T08:14:12.199Z,11.23
2023-02-08T08:16:40.642Z,12.67
2023-02-08T08:19:08.700Z,12.80
2023-02-08T08:21:36.846Z,13.07
2023-02-08T08:24:05.037Z,13.67
2023-02-08T08:26:35.404Z,13.00
2023-02-08T08:29:03.530Z,12.37
2023-02-08T08:31:31.937Z,11.67
2023-02-08T08:34:00.037Z,13.43
2023-02-08T08:36:28.175Z,11.73
2023-02-08T08:38:57.908Z,12.50
2023-02-08T08:41:27.440Z,11.77
2023-02-08T08:43:57.040Z,13.23
2023-02-08T08:46:25.188Z,13.03
2023-02-08T08:48:53.821Z,13.60
2023-02-08T08:51:21.915Z,14.07
2023-02-08T08:53:49.978Z,14.40
2023-02-08T08:56:17.949Z,12.63
2023-02-08T08:58:45.890Z,14.20
2023-02-08T09:01:15.482Z,13.70
2023-02-08T09:03:43.626Z,13.90
2023-02-08T09:06:12.186Z,12.60
2023-02-08T09:08:41.200Z,15.23
2023-02-08T09:11:09.898Z,13.63
2023-02-08T09:13:38.144Z,14.27
2023-02-08T09:16:09.573Z,14.40
2023-02-08T09:18:39.078Z,13.83
2023-02-08T09:21:07.661Z,14.43
2023-02-08T09:23:35.824Z,16.00
2023-02-08T09:26:04.003Z,13.67
2023-02-08T09:28:32.120Z,15.30
2023-02-08T09:31:05.781Z,15.23
2023-02-08T09:33:33.975Z,14.40
2023-02-08T09:36:03.473Z,15.00
2023-02-08T09:38:33.746Z,14.67
2023-02-08T09:41:08.013Z,12.80
2023-02-08T09:43:41.826Z,14.00
2023-02-08T09:46:13.116Z,14.97
2023-02-08T09:48:41.761Z,15.30
2023-02-08T09:51:24.046Z,13.70
2023-02-08T09:53:54.570Z,14.87
2023-02-08T09:56:26.514Z,15.00
2023-02-08T09:58:55.047Z,14.83
2023-02-08T10:01:24.274Z,15.03
2023-02-08T10:03:54.651Z,14.80
2023-02-08T10:06:24.274Z,13.50
2023-02-08T10:08:52.868Z,14.83
2023-02-08T10:11:36.697Z,14.30
2023-02-08T10:14:24.730Z,14.33
2023-02-08T10:16:57.395Z,14.13
2023-02-08T10:19:30.564Z,15.20
2023-02-08T10:22:06.057Z,14.23
2023-02-08T10:24:47.924Z,15.60
2023-02-08T10:27:17.521Z,15.30
2023-02-08T10:30:01.753Z,16.63
2023-02-08T10:32:39.225Z,14.60
2023-02-08T10:35:12.614Z,15.47
2023-02-08T10:37:43.453Z,15.13
2023-02-08T10:40:25.748Z,15.63
2023-02-08T10:42:56.677Z,15.33
2023-02-08T10:45:26.722Z,13.53
2023-02-08T10:47:55.697Z,13.37
2023-02-08T10:50:29.916Z,13.40
2023-02-08T10:52:59.831Z,13.23
2023-02-08T10:55:27.859Z,15.77
2023-02-08T10:57:58.462Z,15.17
2023-02-08T11:00:27.886Z,13.63
2023-02-08T11:02:57.187Z,13.97
2023-02-08T11:05:32.926Z,12.40
2023-02-08T11:08:09.169Z,13.97
2023-02-08T11:10:37.681Z,13.37
2023-02-08T11:13:07.636Z,12.43
2023-02-08T11:15:39.776Z,12.30
2023-02-08T11:18:08.357Z,12.07
2023-02-08T11:20:37.921Z,12.60
2023-02-08T11:23:06.972Z,13.23
2023-02-08T11:25:37.723Z,12.60
2023-02-08T11:28:06.244Z,12.87
2023-02-08T11:30:34.687Z,13.33
2023-02-08T11:33:19.841Z,11.70
2023-02-08T11:35:58.812Z,13.67
2023-02-08T11:38:28.708Z,11.47
2023-02-08T11:40:59.994Z,12.37
2023-02-08T11:43:29.495Z,13.63
2023-02-08T11:45:58.463Z,12.63
2023-02-08T11:48:27.529Z,12.30
2023-02-08T11:50:56.935Z,12.80
2023-02-08T11:53:29.200Z,12.80
2023-02-08T11:56:09.381Z,11.87
2023-02-08T11:58:37.354Z,12.97
2023-02-08T12:01:06.898Z,12.27
2023-02-08T12:03:38.522Z,12.47
2023-02-08T12:06:16.385Z,12.80
2023-02-08T12:08:48.171Z,13.60
2023-02-08T12:11:21.074Z,12.77
2023-02-08T12:13:54.519Z,26.57
2023-02-08T12:16:33.028Z,17.97
2023-02-08T12:19:09.838Z,13.53
2023-02-08T12:21:42.690Z,13.27
2023-02-08T12:24:16.450Z,11.40
2023-02-08T12:26:51.851Z,13.80
2023-02-08T12:29:33.151Z,13.70
2023-02-08T12:32:12.081Z,12.53
2023-02-08T12:34:52.027Z,13.17
2023-02-08T12:37:42.946Z,13.60
2023-02-08T12:40:35.473Z,13.93
2023-02-08T12:43:13.951Z,12.60
2023-02-08T12:45:50.071Z,13.13
2023-02-08T12:48:22.717Z,13.37
2023-02-08T12:50:54.124Z,13.33
2023-02-08T12:53:25.811Z,14.40
2023-02-08T12:55:55.700Z,12.60
2023-02-08T12:58:27.998Z,13.20
2023-02-08T13:00:56.886Z,12.63
2023-02-08T13:03:32.860Z,12.70
2023-02-08T13:06:03.435Z,13.67
2023-02-08T13:08:32.689Z,13.47
2023-02-08T13:11:17.809Z,13.17
2023-02-08T13:13:52.481Z,12.33
2023-02-08T13:16:22.625Z,13.60
2023-02-08T13:18:54.849Z,12.97
2023-02-08T13:21:25.606Z,13.60
2023-02-08T13:23:53.770Z,12.87
2023-02-08T13:26:24.864Z,13.07
2023-02-08T13:28:55.539Z,12.40
2023-02-08T13:31:24.433Z,11.50
2023-02-08T13:34:01.187Z,12.43
2023-02-08T13:36:31.270Z,12.93
2023-02-08T13:39:00.413Z,12.30
2023-02-08T13:41:29.922Z,12.33
2023-02-08T13:44:00.424Z,12.47
2023-02-08T13:46:29.698Z,12.13
2023-02-08T13:49:00.154Z,11.83
2023-02-08T13:51:58.861Z,11.40
2023-02-08T13:54:27.005Z,11.93
2023-02-08T13:56:55.241Z,11.10
2023-02-08T13:59:29.275Z,12.50
2023-02-08T14:02:17.801Z,13.70
2023-02-08T14:04:46.638Z,12.57
2023-02-08T14:07:16.996Z,12.07
2023-02-08T14:09:59.756Z,12.40
2023-02-08T14:12:29.633Z,11.87
2023-02-08T14:15:09.715Z,12.47
2023-02-08T14:17:37.742Z,12.03
2023-02-08T14:20:07.722Z,11.30
2023-02-08T14:22:38.037Z,12.70
2023-02-08T14:25:07.800Z,11.93
2023-02-08T14:27:39.556Z,11.40
2023-02-08T14:30:21.296Z,10.10
2023-02-08T14:32:52.725Z,10.47
2023-02-08T14:35:22.302Z,10.70
2023-02-08T14:37:55.881Z,9.60
2023-02-08T14:40:35.185Z,9.80
2023-02-08T14:43:06.663Z,8.80
2023-02-08T14:45:37.042Z,9.10
2023-02-08T14:48:21.310Z,9.10
2023-02-08T14:50:53.788Z,9.10
2023-02-08T14:53:36.496Z,9.70
2023-02-08T14:56:07.107Z,9.17
2023-02-08T14:58:36.558Z,8.97
2023-02-08T15:01:07.983Z,9.77
2023-02-08T15:03:36.439Z,8.80
2023-02-08T15:06:10.712Z,8.23
2023-02-08T15:08:39.442Z,8.73
2023-02-08T15:11:07.510Z,8.10
2023-02-08T15:13:35.486Z,9.03
2023-02-08T15:16:03.607Z,9.57
2023-02-08T15:18:33.690Z,8.87
2023-02-08T15:21:03.737Z,8.20
2023-02-08T15:23:32.083Z,8.97
2023-02-08T15:26:02.233Z,8.43
2023-02-08T15:28:31.471Z,8.10
2023-02-08T15:31:02.963Z,8.03
2023-02-08T15:33:32.419Z,8.90
2023-02-08T15:36:03.182Z,8.77
2023-02-08T15:38:32.734Z,8.57
2023-02-08T15:41:01.543Z,7.80
2023-02-08T15:43:29.496Z,8.57
2023-02-08T15:45:58.110Z,9.47
2023-02-08T15:48:26.612Z,7.90
2023-02-08T15:50:56.456Z,8.97
2023-02-08T15:53:24.933Z,8.13
2023-02-08T15:55:54.095Z,9.37
2023-02-08T15:58:28.745Z,8.20
2023-02-08T16:00:57.697Z,8.17
2023-02-08T16:03:27.297Z,9.20
2023-02-08T16:05:58.032Z,8.00
2023-02-08T16:08:28.166Z,8.20
2023-02-08T16:10:58.175Z,8.53
2023-02-08T16:13:27.480Z,8.60
2023-02-08T16:16:07.255Z,8.60
2023-02-08T16:18:39.515Z,8.27
2023-02-08T16:21:21.448Z,7.80
2023-02-08T16:23:53.452Z,8.43
2023-02-08T16:26:23.752Z,8.40
2023-02-08T16:28:56.404Z,9.40
2023-02-08T16:31:26.954Z,8.10
2023-02-08T16:33:58.878Z,8.00
2023-02-08T16:36:29.983Z,8.67
2023-02-08T16:39:21.868Z,8.53
2023-02-08T16:42:15.972Z,7.77
2023-02-08T16:44:59.598Z,7.70
2023-02-08T16:47:28.549Z,11.23
2023-02-08T16:49:56.457Z,9.87
2023-02-08T16:52:25.858Z,7.97
2023-02-08T16:54:53.836Z,7.77
2023-02-08T16:57:21.767Z,8.17
2023-02-08T16:59:49.714Z,8.53
2023-02-08T17:02:17.671Z,10.43
2023-02-08T17:04:45.746Z,9.10
2023-02-08T17:07:18.566Z,8.73
2023-02-08T17:09:47.945Z,8.27
2023-02-08T17:12:22.299Z,8.33
2023-02-08T17:14:50.852Z,8.13
2023-02-08T17:17:20.195Z,7.87
2023-02-08T17:19:48.183Z,8.70
2023-02-08T17:22:16.154Z,8.90
2023-02-08T17:24:44.262Z,9.40
2023-02-08T17:27:15.023Z,9.53
2023-02-08T17:29:42.936Z,9.27
2023-02-08T17:32:10.921Z,8.40
2023-02-08T17:34:39.908Z,8.70
2023-02-08T17:37:07.851Z,8.87
2023-02-08T17:39:35.837Z,8.83
2023-02-08T17:42:03.786Z,10.27
2023-02-08T17:44:33.207Z,9.30
2023-02-08T17:47:01.129Z,9.30
2023-02-08T17:49:30.515Z,11.87
2023-02-08T17:51:58.638Z,10.80
2023-02-08T17:54:26.601Z,11.17
2023-02-08T17:56:58.714Z,11.20
2023-02-08T17:59:27.524Z,10.70
2023-02-08T18:01:57.286Z,10.23
2023-02-08T18:04:25.288Z,9.93
2023-02-08T18:06:53.273Z,10.63
2023-02-08T18:09:21.202Z,10.77
2023-02-08T18:11:49.137Z,10.73
2023-02-08T18:14:18.531Z,10.53
2023-02-08T18:16:46.500Z,11.00
2023-02-08T18:19:16.319Z,10.27
2023-02-08T18:21:44.297Z,10.50
2023-02-08T18:24:12.229Z,10.37
2023-02-08T18:26:40.237Z,10.90
2023-02-08T18:29:08.174Z,10.90
2023-02-08T18:31:36.724Z,11.37
2023-02-08T18:34:05.039Z,11.10
2023-02-08T18:36:34.576Z,11.67
2023-02-08T18:39:02.700Z,11.13
2023-02-08T18:41:31.246Z,11.60
2023-02-08T18:43:59.613Z,10.40
2023-02-08T18:46:28.669Z,11.90
2023-02-08T18:48:56.891Z,12.10
2023-02-08T18:51:25.534Z,12.27
2023-02-08T18:53:56.097Z,12.20
2023-02-08T18:56:25.327Z,12.00
2023-02-08T18:58:53.724Z,12.90
2023-02-08T19:01:22.984Z,12.67
2023-02-08T19:03:51.991Z,13.13
2023-02-08T19:06:22.637Z,12.77
2023-02-08T19:08:51.728Z,12.57
2023-02-08T19:11:22.251Z,12.40
2023-02-08T19:13:50.379Z,13.73
2023-02-08T19:16:19.682Z,13.57
2023-02-08T19:18:48.248Z,13.53
2023-02-08T19:21:17.220Z,12.83
2023-02-08T19:23:47.129Z,12.93
2023-02-08T19:26:17.456Z,14.37
2023-02-08T19:28:46.856Z,14.23
2023-02-08T19:31:15.988Z,13.20
2023-02-08T19:33:44.873Z,14.27
2023-02-08T19:36:13.695Z,14.27
2023-02-08T19:38:41.912Z,14.03
2023-02-08T19:41:11.011Z,15.10
2023-02-08T19:43:39.007Z,14.30
2023-02-08T19:46:13.096Z,13.90
2023-02-08T19:48:41.332Z,14.47
2023-02-08T19:51:09.290Z,15.00
2023-02-08T19:53:37.327Z,14.17
2023-02-08T19:56:06.049Z,14.17
2023-02-08T19:58:35.053Z,14.27
2023-02-08T20:01:06.787Z,13.90
2023-02-08T20:03:36.244Z,15.33
2023-02-08T20:06:04.946Z,15.90
2023-02-08T20:08:33.882Z,14.17
2023-02-08T20:11:01.875Z,14.90
2023-02-08T20:13:29.838Z,14.07
2023-02-08T20:15:59.996Z,14.20
2023-02-08T20:18:27.999Z,14.60
2023-02-08T20:21:04.567Z,14.53
2023-02-08T20:23:33.021Z,14.50
2023-02-08T20:26:05.172Z,14.13
2023-02-08T20:28:36.105Z,13.83
2023-02-08T20:31:07.611Z,15.63
2023-02-08T20:33:35.921Z,15.30
2023-02-08T20:36:09.791Z,14.40
2023-02-08T20:38:39.241Z,14.77
2023-02-08T20:41:07.833Z,15.37
2023-02-08T20:43:35.890Z,15.90
2023-02-08T20:46:06.845Z,15.10
2023-02-08T20:48:34.984Z,15.23
2023-02-08T20:51:07.080Z,14.97
2023-02-08T20:53:37.141Z,16.03
2023-02-08T20:56:08.546Z,14.73
2023-02-08T20:58:36.877Z,15.57
2023-02-08T21:01:08.440Z,17.07
2023-02-08T21:03:36.464Z,16.17
2023-02-08T21:06:12.340Z,16.87
2023-02-08T21:08:41.722Z,15.97
2023-02-08T21:11:09.871Z,16.13
2023-02-08T21:13:37.949Z,16.63
2023-02-08T21:16:06.388Z,15.33
2023-02-08T21:18:34.589Z,15.30
2023-02-08T21:21:02.558Z,17.33
2023-02-08T21:23:30.512Z,15.80
2023-02-08T21:26:01.281Z,16.63
2023-02-08T21:28:29.734Z,15.73
2023-02-08T21:30:57.962Z,16.70
2023-02-08T21:33:26.351Z,15.97
2023-02-08T21:35:54.483Z,16.03
2023-02-08T21:38:22.803Z,16.23
2023-02-08T21:40:50.821Z,14.87
2023-02-08T21:43:20.171Z,15.93
2023-02-08T21:45:48.349Z,16.37
2023-02-08T21:48:16.400Z,16.40
2023-02-08T21:51:01.703Z,15.83
2023-02-08T21:53:47.270Z,16.33
2023-02-08T21:56:15.334Z,16.83
2023-02-08T21:58:45.210Z,16.60
2023-02-08T22:01:13.415Z,16.20
2023-02-08T22:03:41.567Z,17.07
2023-02-08T22:06:27.167Z,16.60
2023-02-08T22:08:55.196Z,16.97
2023-02-08T22:11:23.641Z,18.03
2023-02-08T22:13:53.140Z,17.67
2023-02-08T22:16:21.243Z,17.00
2023-02-08T22:18:49.316Z,17.90
2023-02-08T22:21:17.284Z,17.83
2023-02-08T22:23:45.329Z,16.73
2023-02-08T22:26:13.331Z,18.10
2023-02-08T22:28:41.396Z,18.07
2023-02-08T22:31:11.083Z,17.00
2023-02-08T22:33:39.150Z,17.57
2023-02-08T22:36:07.744Z,18.07
2023-02-08T22:38:35.725Z,17.60
2023-02-08T22:41:04.113Z,16.53
2023-02-08T22:43:32.176Z,18.27
2023-02-08T22:46:00.685Z,16.83
2023-02-08T22:48:30.557Z,18.03
2023-02-08T22:50:58.576Z,17.30
2023-02-08T22:53:26.676Z,18.00
2023-02-08T22:55:55.500Z,17.83
2023-02-08T22:58:24.152Z,16.43
2023-02-08T23:00:52.137Z,17.90
2023-02-08T23:03:20.855Z,16.83
2023-02-08T23:05:51.255Z,17.73
2023-02-08T23:08:20.027Z,17.17
2023-02-08T23:10:48.009Z,17.03
2023-02-08T23:13:15.983Z,17.27
2023-02-08T23:15:45.094Z,18.47
2023-02-08T23:18:13.267Z,17.80
2023-02-08T23:20:42.113Z,17.60
2023-02-08T23:23:11.528Z,17.20
2023-02-08T23:25:39.991Z,16.10
2023-02-08T23:28:08.391Z,16.73
2023-02-08T23:30:36.495Z,18.60
2023-02-08T23:33:04.510Z,18.00
2023-02-08T23:35:32.453Z,19.33
2023-02-08T23:38:00.618Z,18.33
2023-02-08T23:40:30.061Z,18.33
2023-02-08T23:42:58.065Z,18.17
2023-02-08T23:45:26.053Z,16.83
2023-02-08T23:47:54.018Z,17.30
2023-02-08T23:50:22.141Z,20.03
2023-02-08T23:52:50.151Z,17.73
2023-02-08T23:55:18.220Z,18.37
2023-02-08T23:57:47.646Z,20.33
